sensor_id;sensor_type;location;lat;lon;timestamp;pressure;altitude;pressure_sealevel;temperature;humidity
56042;BME280;48756;41.374;2.066;2023-10-19T00:01:16;99574.63;;;23.04;56.45
56042;BME280;48756;41.374;2.066;2023-10-19T00:03:43;99576.81;;;23.10;55.94
56042;BME280;48756;41.374;2.066;2023-10-19T00:06:10;99577.88;;;23.07;55.84
56042;BME280;48756;41.374;2.066;2023-10-19T00:08:37;99585.13;;;23.05;56.68
56042;BME280;48756;41.374;2.066;2023-10-19T00:11:11;99595.16;;;23.13;56.93
56042;BME280;48756;41.374;2.066;2023-10-19T00:13:47;99583.56;;;22.91;57.82
56042;BME280;48756;41.374;2.066;2023-10-19T00:16:16;99594.56;;;23.09;57.59
56042;BME280;48756;41.374;2.066;2023-10-19T00:18:43;99575.13;;;22.98;58.16
56042;BME280;48756;41.374;2.066;2023-10-19T00:21:09;99569.09;;;22.96;58.53
56042;BME280;48756;41.374;2.066;2023-10-19T00:23:52;99570.75;;;22.85;58.63
56042;BME280;48756;41.374;2.066;2023-10-19T00:26:22;99569.19;;;22.83;59.05
56042;BME280;48756;41.374;2.066;2023-10-19T00:28:51;99559.28;;;22.74;61.29
56042;BME280;48756;41.374;2.066;2023-10-19T00:31:23;99561.44;;;22.69;60.66
56042;BME280;48756;41.374;2.066;2023-10-19T00:33:49;99564.06;;;22.57;60.04
56042;BME280;48756;41.374;2.066;2023-10-19T00:36:20;99559.88;;;22.66;59.90
56042;BME280;48756;41.374;2.066;2023-10-19T00:38:48;99556.00;;;22.59;58.98
56042;BME280;48756;41.374;2.066;2023-10-19T00:41:15;99562.41;;;22.68;58.78
56042;BME280;48756;41.374;2.066;2023-10-19T00:43:46;99552.88;;;22.76;57.75
56042;BME280;48756;41.374;2.066;2023-10-19T00:46:20;99554.84;;;22.97;56.26
56042;BME280;48756;41.374;2.066;2023-10-19T00:48:59;99553.50;;;23.02;55.30
56042;BME280;48756;41.374;2.066;2023-10-19T00:51:34;99562.78;;;22.85;56.01
56042;BME280;48756;41.374;2.066;2023-10-19T00:54:08;99556.28;;;22.89;56.55
56042;BME280;48756;41.374;2.066;2023-10-19T00:56:36;99556.63;;;22.74;56.97
56042;BME280;48756;41.374;2.066;2023-10-19T00:59:06;99548.16;;;22.69;57.07
56042;BME280;48756;41.374;2.066;2023-10-19T01:01:40;99550.09;;;22.78;57.03
56042;BME280;48756;41.374;2.066;2023-10-19T01:04:13;99547.81;;;22.73;58.21
56042;BME280;48756;41.374;2.066;2023-10-19T01:06:41;99528.25;;;22.52;57.92
56042;BME280;48756;41.374;2.066;2023-10-19T01:09:27;99515.56;;;22.44;59.49
56042;BME280;48756;41.374;2.066;2023-10-19T01:11:53;99536.81;;;22.55;57.84
56042;BME280;48756;41.374;2.066;2023-10-19T01:14:21;99535.59;;;22.59;61.05
56042;BME280;48756;41.374;2.066;2023-10-19T01:16:48;99527.50;;;22.50;59.35
56042;BME280;48756;41.374;2.066;2023-10-19T01:19:15;99516.50;;;22.32;60.50
56042;BME280;48756;41.374;2.066;2023-10-19T01:21:44;99515.44;;;22.46;57.96
56042;BME280;48756;41.374;2.066;2023-10-19T01:24:17;99516.19;;;22.48;56.78
56042;BME280;48756;41.374;2.066;2023-10-19T01:26:42;99512.41;;;22.61;54.43
56042;BME280;48756;41.374;2.066;2023-10-19T01:29:08;99508.31;;;22.80;53.79
56042;BME280;48756;41.374;2.066;2023-10-19T01:31:51;99502.16;;;22.79;54.90
56042;BME280;48756;41.374;2.066;2023-10-19T01:34:22;99502.03;;;22.81;53.34
56042;BME280;48756;41.374;2.066;2023-10-19T01:36:47;99499.03;;;22.97;52.64
56042;BME280;48756;41.374;2.066;2023-10-19T01:39:17;99509.41;;;23.00;52.92
56042;BME280;48756;41.374;2.066;2023-10-19T01:41:44;99520.53;;;22.94;52.95
56042;BME280;48756;41.374;2.066;2023-10-19T01:44:11;99522.00;;;22.86;52.93
56042;BME280;48756;41.374;2.066;2023-10-19T01:46:41;99516.78;;;22.85;52.94
56042;BME280;48756;41.374;2.066;2023-10-19T01:49:09;99516.19;;;22.92;52.93
56042;BME280;48756;41.374;2.066;2023-10-19T01:51:36;99512.22;;;22.87;52.96
56042;BME280;48756;41.374;2.066;2023-10-19T01:54:04;99508.81;;;22.85;52.79
56042;BME280;48756;41.374;2.066;2023-10-19T01:56:32;99493.84;;;22.95;53.33
56042;BME280;48756;41.374;2.066;2023-10-19T01:59:00;99484.06;;;22.84;53.49
56042;BME280;48756;41.374;2.066;2023-10-19T02:01:26;99472.84;;;22.92;53.51
56042;BME280;48756;41.374;2.066;2023-10-19T02:03:53;99470.91;;;22.83;54.05
56042;BME280;48756;41.374;2.066;2023-10-19T02:06:21;99471.97;;;22.80;54.57
56042;BME280;48756;41.374;2.066;2023-10-19T02:08:59;99469.34;;;22.69;55.29
56042;BME280;48756;41.374;2.066;2023-10-19T02:11:57;99448.94;;;22.92;54.38
56042;BME280;48756;41.374;2.066;2023-10-19T02:14:24;99439.03;;;22.83;54.52
56042;BME280;48756;41.374;2.066;2023-10-19T02:16:53;99432.06;;;22.82;54.77
56042;BME280;48756;41.374;2.066;2023-10-19T02:19:22;99415.50;;;22.78;54.60
56042;BME280;48756;41.374;2.066;2023-10-19T02:21:51;99409.22;;;22.90;54.41
56042;BME280;48756;41.374;2.066;2023-10-19T02:24:18;99407.81;;;22.86;54.24
56042;BME280;48756;41.374;2.066;2023-10-19T02:26:45;99399.06;;;22.96;54.05
56042;BME280;48756;41.374;2.066;2023-10-19T02:29:12;99413.91;;;22.98;54.08
56042;BME280;48756;41.374;2.066;2023-10-19T02:31:42;99424.31;;;22.90;53.74
56042;BME280;48756;41.374;2.066;2023-10-19T02:34:09;99414.16;;;22.95;54.02
56042;BME280;48756;41.374;2.066;2023-10-19T02:36:38;99410.53;;;22.96;53.37
56042;BME280;48756;41.374;2.066;2023-10-19T02:39:06;99418.38;;;23.09;53.00
56042;BME280;48756;41.374;2.066;2023-10-19T02:44:12;99416.34;;;22.90;53.59
56042;BME280;48756;41.374;2.066;2023-10-19T02:46:47;99419.19;;;23.09;53.10
56042;BME280;48756;41.374;2.066;2023-10-19T02:49:15;99421.38;;;23.04;53.48
56042;BME280;48756;41.374;2.066;2023-10-19T02:51:45;99419.19;;;23.09;53.46
56042;BME280;48756;41.374;2.066;2023-10-19T02:54:12;99412.56;;;23.04;53.66
56042;BME280;48756;41.374;2.066;2023-10-19T02:56:47;99405.22;;;22.96;53.86
56042;BME280;48756;41.374;2.066;2023-10-19T02:59:16;99407.16;;;22.94;54.20
56042;BME280;48756;41.374;2.066;2023-10-19T03:01:42;99413.88;;;23.09;53.77
56042;BME280;48756;41.374;2.066;2023-10-19T03:04:11;99403.75;;;23.03;53.65
56042;BME280;48756;41.374;2.066;2023-10-19T03:06:38;99414.03;;;22.97;53.80
56042;BME280;48756;41.374;2.066;2023-10-19T03:09:07;99407.50;;;23.01;53.70
56042;BME280;48756;41.374;2.066;2023-10-19T03:11:43;99402.66;;;23.06;53.75
56042;BME280;48756;41.374;2.066;2023-10-19T03:14:10;99411.31;;;23.08;54.06
56042;BME280;48756;41.374;2.066;2023-10-19T03:16:39;99400.28;;;22.91;54.66
56042;BME280;48756;41.374;2.066;2023-10-19T03:19:08;99401.72;;;22.96;54.49
56042;BME280;48756;41.374;2.066;2023-10-19T03:21:35;99396.66;;;22.92;54.67
56042;BME280;48756;41.374;2.066;2023-10-19T03:24:10;99390.34;;;23.05;54.47
56042;BME280;48756;41.374;2.066;2023-10-19T03:26:51;99397.63;;;22.91;54.79
56042;BME280;48756;41.374;2.066;2023-10-19T03:29:17;99403.66;;;22.94;54.98
56042;BME280;48756;41.374;2.066;2023-10-19T03:31:56;99402.84;;;22.82;55.51
56042;BME280;48756;41.374;2.066;2023-10-19T03:34:22;99401.25;;;22.79;55.75
56042;BME280;48756;41.374;2.066;2023-10-19T03:36:49;99395.44;;;22.85;56.17
56042;BME280;48756;41.374;2.066;2023-10-19T03:39:16;99387.41;;;22.65;56.37
56042;BME280;48756;41.374;2.066;2023-10-19T03:41:43;99391.97;;;22.74;56.12
56042;BME280;48756;41.374;2.066;2023-10-19T03:44:10;99379.78;;;22.71;55.99
56042;BME280;48756;41.374;2.066;2023-10-19T03:46:52;99393.66;;;22.75;55.54
56042;BME280;48756;41.374;2.066;2023-10-19T03:49:23;99395.34;;;22.76;55.48
56042;BME280;48756;41.374;2.066;2023-10-19T03:51:55;99395.44;;;22.85;55.07
56042;BME280;48756;41.374;2.066;2023-10-19T03:54:25;99400.28;;;22.91;54.68
56042;BME280;48756;41.374;2.066;2023-10-19T03:56:53;99402.81;;;22.93;54.34
56042;BME280;48756;41.374;2.066;2023-10-19T03:59:19;99395.56;;;22.95;54.24
56042;BME280;48756;41.374;2.066;2023-10-19T04:01:55;99398.69;;;23.00;54.14
56042;BME280;48756;41.374;2.066;2023-10-19T04:04:21;99389.41;;;22.95;53.86
56042;BME280;48756;41.374;2.066;2023-10-19T04:06:47;99380.84;;;23.23;53.79
56042;BME280;48756;41.374;2.066;2023-10-19T04:09:14;99381.09;;;23.20;53.21
56042;BME280;48756;41.374;2.066;2023-10-19T04:11:42;99382.47;;;23.14;53.51
56042;BME280;48756;41.374;2.066;2023-10-19T04:14:15;99374.88;;;23.10;53.38
56042;BME280;48756;41.374;2.066;2023-10-19T04:16:42;99385.59;;;23.08;53.75
56042;BME280;48756;41.374;2.066;2023-10-19T04:19:13;99387.72;;;22.94;53.86
56042;BME280;48756;41.374;2.066;2023-10-19T04:21:40;99390.59;;;23.02;53.60
56042;BME280;48756;41.374;2.066;2023-10-19T04:24:09;99378.19;;;23.23;53.06
56042;BME280;48756;41.374;2.066;2023-10-19T04:26:37;99364.84;;;23.13;53.77
56042;BME280;48756;41.374;2.066;2023-10-19T04:29:03;99358.69;;;23.13;53.52
56042;BME280;48756;41.374;2.066;2023-10-19T04:31:38;99350.06;;;23.20;53.33
56042;BME280;48756;41.374;2.066;2023-10-19T04:34:18;99347.97;;;23.24;53.83
56042;BME280;48756;41.374;2.066;2023-10-19T04:36:47;99336.72;;;23.11;53.74
56042;BME280;48756;41.374;2.066;2023-10-19T04:39:13;99340.44;;;23.08;54.57
56042;BME280;48756;41.374;2.066;2023-10-19T04:41:42;99346.06;;;22.94;55.07
56042;BME280;48756;41.374;2.066;2023-10-19T04:44:09;99346.31;;;22.80;55.50
56042;BME280;48756;41.374;2.066;2023-10-19T04:46:36;99342.63;;;22.71;55.35
56042;BME280;48756;41.374;2.066;2023-10-19T04:49:02;99337.44;;;22.58;56.76
56042;BME280;48756;41.374;2.066;2023-10-19T04:51:29;99324.69;;;22.52;57.76
56042;BME280;48756;41.374;2.066;2023-10-19T04:53:55;70724.75;;;22.40;58.48
56042;BME280;48756;41.374;2.066;2023-10-19T04:56:21;99316.75;;;22.41;57.53
56042;BME280;48756;41.374;2.066;2023-10-19T04:58:47;99302.41;;;22.33;56.97
56042;BME280;48756;41.374;2.066;2023-10-19T05:01:13;99292.50;;;22.35;57.52
56042;BME280;48756;41.374;2.066;2023-10-19T05:03:40;99292.13;;;22.39;57.40
56042;BME280;48756;41.374;2.066;2023-10-19T05:06:06;99290.22;;;22.41;57.09
56042;BME280;48756;41.374;2.066;2023-10-19T05:08:35;99284.53;;;22.35;57.01
56042;BME280;48756;41.374;2.066;2023-10-19T05:11:02;99297.59;;;22.26;56.97
56042;BME280;48756;41.374;2.066;2023-10-19T05:13:30;99296.00;;;22.35;56.67
56042;BME280;48756;41.374;2.066;2023-10-19T05:15:57;99289.38;;;22.41;56.56
56042;BME280;48756;41.374;2.066;2023-10-19T05:18:25;99282.00;;;22.33;56.13
56042;BME280;48756;41.374;2.066;2023-10-19T05:20:52;99277.16;;;22.38;55.96
56042;BME280;48756;41.374;2.066;2023-10-19T05:23:22;99274.50;;;22.38;55.77
56042;BME280;48756;41.374;2.066;2023-10-19T05:25:50;99272.94;;;22.47;55.31
56042;BME280;48756;41.374;2.066;2023-10-19T05:28:17;99273.91;;;22.46;55.11
56042;BME280;48756;41.374;2.066;2023-10-19T05:30:44;99280.19;;;22.45;55.30
56042;BME280;48756;41.374;2.066;2023-10-19T05:33:10;99272.81;;;22.48;55.17
56042;BME280;48756;41.374;2.066;2023-10-19T05:35:36;99271.72;;;22.40;55.57
56042;BME280;48756;41.374;2.066;2023-10-19T05:38:06;99277.88;;;22.40;56.38
56042;BME280;48756;41.374;2.066;2023-10-19T05:40:32;99275.00;;;22.43;56.12
56042;BME280;48756;41.374;2.066;2023-10-19T05:42:59;99266.09;;;22.33;58.43
56042;BME280;48756;41.374;2.066;2023-10-19T05:45:27;99273.47;;;22.29;58.05
56042;BME280;48756;41.374;2.066;2023-10-19T05:47:56;99269.63;;;22.11;57.85
56042;BME280;48756;41.374;2.066;2023-10-19T05:50:25;99279.38;;;21.88;60.02
56042;BME280;48756;41.374;2.066;2023-10-19T05:52:53;99274.34;;;21.74;61.72
56042;BME280;48756;41.374;2.066;2023-10-19T05:55:19;99264.09;;;21.58;63.33
56042;BME280;48756;41.374;2.066;2023-10-19T05:57:47;99267.09;;;21.54;64.69
56042;BME280;48756;41.374;2.066;2023-10-19T06:00:13;99270.09;;;21.49;65.72
56042;BME280;48756;41.374;2.066;2023-10-19T06:02:44;99274.78;;;21.46;66.16
56042;BME280;48756;41.374;2.066;2023-10-19T06:05:10;99281.66;;;21.48;65.96
56042;BME280;48756;41.374;2.066;2023-10-19T06:07:36;99281.31;;;21.53;67.88
56042;BME280;48756;41.374;2.066;2023-10-19T06:10:02;99276.75;;;21.55;67.13
56042;BME280;48756;41.374;2.066;2023-10-19T06:12:36;99263.00;;;21.38;68.23
56042;BME280;48756;41.374;2.066;2023-10-19T06:15:02;99256.59;;;21.41;68.82
56042;BME280;48756;41.374;2.066;2023-10-19T06:17:28;99243.13;;;21.33;68.38
56042;BME280;48756;41.374;2.066;2023-10-19T06:19:54;99251.78;;;21.35;67.63
56042;BME280;48756;41.374;2.066;2023-10-19T06:22:23;99269.50;;;21.46;67.82
56042;BME280;48756;41.374;2.066;2023-10-19T06:24:49;99280.47;;;21.52;66.09
56042;BME280;48756;41.374;2.066;2023-10-19T06:27:15;99277.94;;;21.62;66.84
56042;BME280;48756;41.374;2.066;2023-10-19T06:29:41;99282.88;;;21.66;67.03
56042;BME280;48756;41.374;2.066;2023-10-19T06:32:06;99294.09;;;21.70;66.28
56042;BME280;48756;41.374;2.066;2023-10-19T06:34:32;99291.31;;;21.71;66.26
56042;BME280;48756;41.374;2.066;2023-10-19T06:36:57;99299.41;;;21.81;67.19
56042;BME280;48756;41.374;2.066;2023-10-19T06:39:24;99310.72;;;21.83;67.88
56042;BME280;48756;41.374;2.066;2023-10-19T06:41:50;99311.94;;;21.79;69.53
56042;BME280;48756;41.374;2.066;2023-10-19T06:44:21;99319.28;;;21.87;67.62
56042;BME280;48756;41.374;2.066;2023-10-19T06:46:47;99314.97;;;22.08;65.17
56042;BME280;48756;41.374;2.066;2023-10-19T06:49:13;99320.28;;;22.08;63.35
56042;BME280;48756;41.374;2.066;2023-10-19T06:51:40;99322.81;;;22.21;62.51
56042;BME280;48756;41.374;2.066;2023-10-19T06:54:06;99319.75;;;22.37;61.06
56042;BME280;48756;41.374;2.066;2023-10-19T06:56:33;99310.69;;;22.50;62.33
56042;BME280;48756;41.374;2.066;2023-10-19T06:59:02;99305.84;;;22.55;62.34
56042;BME280;48756;41.374;2.066;2023-10-19T07:01:30;99308.94;;;22.60;64.66
56042;BME280;48756;41.374;2.066;2023-10-19T07:03:57;99306.16;;;22.62;60.41
56042;BME280;48756;41.374;2.066;2023-10-19T07:06:23;99302.13;;;22.79;60.34
56042;BME280;48756;41.374;2.066;2023-10-19T07:08:49;99305.91;;;22.76;61.04
56042;BME280;48756;41.374;2.066;2023-10-19T07:11:15;99307.94;;;22.84;58.46
56042;BME280;48756;41.374;2.066;2023-10-19T07:13:41;99311.09;;;23.10;57.92
56042;BME280;48756;41.374;2.066;2023-10-19T07:16:11;99318.72;;;23.03;57.83
56042;BME280;48756;41.374;2.066;2023-10-19T07:18:37;99327.94;;;23.20;56.89
56042;BME280;48756;41.374;2.066;2023-10-19T07:21:06;99334.06;;;23.11;55.06
56042;BME280;48756;41.374;2.066;2023-10-19T07:23:35;99338.03;;;23.05;55.48
56042;BME280;48756;41.374;2.066;2023-10-19T07:26:03;99339.53;;;22.98;56.47
56042;BME280;48756;41.374;2.066;2023-10-19T07:28:29;99338.56;;;22.99;55.54
56042;BME280;48756;41.374;2.066;2023-10-19T07:30:57;99344.06;;;23.07;54.77
56042;BME280;48756;41.374;2.066;2023-10-19T07:33:22;99349.03;;;23.12;55.70
56042;BME280;48756;41.374;2.066;2023-10-19T07:35:50;99351.47;;;23.25;56.09
56042;BME280;48756;41.374;2.066;2023-10-19T07:38:28;99358.44;;;23.37;54.54
56042;BME280;48756;41.374;2.066;2023-10-19T07:40:56;99365.00;;;23.33;54.76
56042;BME280;48756;41.374;2.066;2023-10-19T07:43:24;99363.97;;;23.66;54.67
56042;BME280;48756;41.374;2.066;2023-10-19T07:45:50;99371.63;;;23.59;52.79
56042;BME280;48756;41.374;2.066;2023-10-19T07:48:17;99364.22;;;23.83;51.45
56042;BME280;48756;41.374;2.066;2023-10-19T07:50:43;99366.13;;;24.02;50.53
56042;BME280;48756;41.374;2.066;2023-10-19T07:53:09;99361.63;;;23.72;51.06
56042;BME280;48756;41.374;2.066;2023-10-19T07:55:35;99363.00;;;23.97;51.58
56042;BME280;48756;41.374;2.066;2023-10-19T07:58:00;99347.13;;;24.17;50.46
56042;BME280;48756;41.374;2.066;2023-10-19T08:00:28;99334.75;;;24.36;49.96
56042;BME280;48756;41.374;2.066;2023-10-19T08:02:59;99319.47;;;24.38;50.42
56042;BME280;48756;41.374;2.066;2023-10-19T08:05:24;99316.13;;;24.36;50.33
56042;BME280;48756;41.374;2.066;2023-10-19T08:07:51;99339.66;;;24.41;51.63
56042;BME280;48756;41.374;2.066;2023-10-19T08:10:18;99345.00;;;24.41;51.25
56042;BME280;48756;41.374;2.066;2023-10-19T08:12:45;99343.06;;;24.62;51.69
56042;BME280;48756;41.374;2.066;2023-10-19T08:15:13;99338.06;;;24.79;50.74
56042;BME280;48756;41.374;2.066;2023-10-19T08:17:42;99337.63;;;24.83;49.84
56042;BME280;48756;41.374;2.066;2023-10-19T08:20:09;99325.47;;;25.10;48.25
56042;BME280;48756;41.374;2.066;2023-10-19T08:22:36;99313.72;;;25.12;49.51
56042;BME280;48756;41.374;2.066;2023-10-19T08:25:03;99310.31;;;25.29;50.05
56042;BME280;48756;41.374;2.066;2023-10-19T08:27:30;99325.63;;;25.18;49.91
56042;BME280;48756;41.374;2.066;2023-10-19T08:29:56;99322.66;;;25.11;51.44
56042;BME280;48756;41.374;2.066;2023-10-19T08:32:25;99314.25;;;25.16;51.07
56042;BME280;48756;41.374;2.066;2023-10-19T08:34:52;99297.94;;;25.28;50.68
56042;BME280;48756;41.374;2.066;2023-10-19T08:37:17;99294.50;;;25.55;49.91
56042;BME280;48756;41.374;2.066;2023-10-19T08:39:44;99299.56;;;25.68;51.40
56042;BME280;48756;41.374;2.066;2023-10-19T08:42:14;99292.91;;;25.25;53.09
56042;BME280;48756;41.374;2.066;2023-10-19T08:44:40;99286.34;;;25.20;53.30
56042;BME280;48756;41.374;2.066;2023-10-19T08:47:06;99305.66;;;25.41;52.93
56042;BME280;48756;41.374;2.066;2023-10-19T08:49:33;99309.69;;;25.55;54.15
56042;BME280;48756;41.374;2.066;2023-10-19T08:52:00;99309.63;;;25.18;53.86
56042;BME280;48756;41.374;2.066;2023-10-19T08:54:29;99300.63;;;25.28;55.10
56042;BME280;48756;41.374;2.066;2023-10-19T08:56:55;99290.31;;;25.53;55.29
56042;BME280;48756;41.374;2.066;2023-10-19T08:59:21;99285.03;;;25.43;55.53
56042;BME280;48756;41.374;2.066;2023-10-19T09:01:48;99292.13;;;25.72;56.07
56042;BME280;48756;41.374;2.066;2023-10-19T09:04:14;99287.91;;;25.69;55.73
56042;BME280;48756;41.374;2.066;2023-10-19T09:06:42;99280.63;;;25.99;54.49
56042;BME280;48756;41.374;2.066;2023-10-19T09:09:12;99272.13;;;25.85;54.23
56042;BME280;48756;41.374;2.066;2023-10-19T09:11:51;99272.38;;;26.19;54.24
56042;BME280;48756;41.374;2.066;2023-10-19T09:14:32;99251.66;;;25.76;53.40
56042;BME280;48756;41.374;2.066;2023-10-19T09:17:08;99235.13;;;25.63;54.44
56042;BME280;48756;41.374;2.066;2023-10-19T09:19:36;99221.47;;;26.03;53.13
56042;BME280;48756;41.374;2.066;2023-10-19T09:22:03;99210.88;;;26.11;52.29
56042;BME280;48756;41.374;2.066;2023-10-19T09:24:55;99205.78;;;26.18;53.10
56042;BME280;48756;41.374;2.066;2023-10-19T09:27:21;99221.38;;;25.95;51.87
56042;BME280;48756;41.374;2.066;2023-10-19T09:29:48;99224.91;;;26.13;51.46
56042;BME280;48756;41.374;2.066;2023-10-19T09:32:13;99232.09;;;26.13;51.09
56042;BME280;48756;41.374;2.066;2023-10-19T09:34:40;99258.94;;;26.11;50.75
56042;BME280;48756;41.374;2.066;2023-10-19T09:37:09;99276.19;;;26.17;51.39
56042;BME280;48756;41.374;2.066;2023-10-19T09:39:35;99289.44;;;26.09;51.58
56042;BME280;48756;41.374;2.066;2023-10-19T09:42:08;99301.41;;;26.05;51.17
56042;BME280;48756;41.374;2.066;2023-10-19T09:44:45;99297.59;;;26.07;52.48
56042;BME280;48756;41.374;2.066;2023-10-19T09:47:23;99311.63;;;25.82;52.48
56042;BME280;48756;41.374;2.066;2023-10-19T09:49:51;99310.41;;;26.04;52.42
56042;BME280;48756;41.374;2.066;2023-10-19T09:52:17;99314.59;;;26.06;50.96
56042;BME280;48756;41.374;2.066;2023-10-19T09:55:00;99307.72;;;26.31;51.41
56042;BME280;48756;41.374;2.066;2023-10-19T09:57:39;99292.72;;;26.48;51.35
56042;BME280;48756;41.374;2.066;2023-10-19T10:00:11;99289.38;;;26.46;51.01
56042;BME280;48756;41.374;2.066;2023-10-19T10:02:43;99282.28;;;26.09;52.90
56042;BME280;48756;41.374;2.066;2023-10-19T10:10:43;99276.13;;;25.62;55.93
56042;BME280;48756;41.374;2.066;2023-10-19T10:15:53;99289.28;;;24.97;56.21
56042;BME280;48756;41.374;2.066;2023-10-19T10:18:32;99295.59;;;25.16;56.94
56042;BME280;48756;41.374;2.066;2023-10-19T10:21:22;99288.31;;;25.18;57.22
56042;BME280;48756;41.374;2.066;2023-10-19T10:23:54;99287.28;;;25.38;57.43
56042;BME280;48756;41.374;2.066;2023-10-19T10:26:22;99254.91;;;25.23;59.56
56042;BME280;48756;41.374;2.066;2023-10-19T10:29:09;99228.31;;;25.41;58.53
56042;BME280;48756;41.374;2.066;2023-10-19T10:31:48;99200.38;;;25.45;58.99
56042;BME280;48756;41.374;2.066;2023-10-19T10:37:07;99159.22;;;25.85;58.67
56042;BME280;48756;41.374;2.066;2023-10-19T10:39:34;99147.16;;;25.99;58.42
56042;BME280;48756;41.374;2.066;2023-10-19T10:42:09;99157.47;;;25.66;60.07
56042;BME280;48756;41.374;2.066;2023-10-19T10:49:54;99136.28;;;26.63;57.35
56042;BME280;48756;41.374;2.066;2023-10-19T10:52:30;99173.97;;;25.79;60.20
56042;BME280;48756;41.374;2.066;2023-10-19T10:54:58;99160.44;;;25.90;60.29
56042;BME280;48756;41.374;2.066;2023-10-19T10:57:31;99162.72;;;25.85;59.68
56042;BME280;48756;41.374;2.066;2023-10-19T11:00:05;99153.28;;;25.91;58.31
56042;BME280;48756;41.374;2.066;2023-10-19T11:02:33;99147.13;;;26.08;58.25
56042;BME280;48756;41.374;2.066;2023-10-19T11:04:59;99132.69;;;26.19;58.17
56042;BME280;48756;41.374;2.066;2023-10-19T11:07:25;99127.78;;;26.68;57.48
56042;BME280;48756;41.374;2.066;2023-10-19T11:09:51;99111.50;;;26.53;57.75
56042;BME280;48756;41.374;2.066;2023-10-19T11:12:17;99112.19;;;26.37;58.37
56042;BME280;48756;41.374;2.066;2023-10-19T11:14:56;99100.53;;;26.38;58.57
56042;BME280;48756;41.374;2.066;2023-10-19T11:17:25;99088.16;;;26.89;56.57
56042;BME280;48756;41.374;2.066;2023-10-19T11:19:56;99072.44;;;27.12;53.99
56042;BME280;48756;41.374;2.066;2023-10-19T11:22:23;99073.94;;;27.06;52.36
56042;BME280;48756;41.374;2.066;2023-10-19T11:24:50;99060.91;;;27.11;51.64
56042;BME280;48756;41.374;2.066;2023-10-19T11:27:27;99060.59;;;27.14;51.98
56042;BME280;48756;41.374;2.066;2023-10-19T11:29:54;99047.31;;;26.97;52.38
56042;BME280;48756;41.374;2.066;2023-10-19T11:32:21;99050.22;;;27.11;52.12
56042;BME280;48756;41.374;2.066;2023-10-19T11:34:47;99045.78;;;27.28;51.58
56042;BME280;48756;41.374;2.066;2023-10-19T11:37:13;99040.75;;;27.17;52.86
56042;BME280;48756;41.374;2.066;2023-10-19T11:39:39;99043.94;;;27.37;52.05
56042;BME280;48756;41.374;2.066;2023-10-19T11:42:05;99050.94;;;27.22;52.26
56042;BME280;48756;41.374;2.066;2023-10-19T11:44:30;99033.38;;;26.93;49.29
56042;BME280;48756;41.374;2.066;2023-10-19T11:46:56;99027.69;;;26.54;48.09
56042;BME280;48756;41.374;2.066;2023-10-19T11:49:21;99018.94;;;26.44;49.03
56042;BME280;48756;41.374;2.066;2023-10-19T11:51:48;99011.34;;;26.91;48.17
56042;BME280;48756;41.374;2.066;2023-10-19T11:54:13;99012.94;;;27.02;48.55
56042;BME280;48756;41.374;2.066;2023-10-19T11:56:39;99025.50;;;26.83;48.11
56042;BME280;48756;41.374;2.066;2023-10-19T11:59:05;99035.94;;;26.95;48.22
56042;BME280;48756;41.374;2.066;2023-10-19T12:01:32;99040.34;;;27.04;48.71
56042;BME280;48756;41.374;2.066;2023-10-19T12:03:58;99030.81;;;26.75;50.04
56042;BME280;48756;41.374;2.066;2023-10-19T12:06:25;99021.28;;;26.73;0.00
56042;BME280;48756;41.374;2.066;2023-10-19T12:08:50;99011.97;;;26.85;48.88
56042;BME280;48756;41.374;2.066;2023-10-19T12:11:16;98999.75;;;27.08;47.64
56042;BME280;48756;41.374;2.066;2023-10-19T12:13:44;99004.25;;;26.48;49.04
56042;BME280;48756;41.374;2.066;2023-10-19T12:16:11;99005.72;;;26.42;51.41
56042;BME280;48756;41.374;2.066;2023-10-19T12:18:46;99002.22;;;26.42;52.80
56042;BME280;48756;41.374;2.066;2023-10-19T12:21:13;99010.63;;;26.29;53.22
56042;BME280;48756;41.374;2.066;2023-10-19T12:23:40;99003.53;;;25.76;55.28
56042;BME280;48756;41.374;2.066;2023-10-19T12:26:06;99002.63;;;26.29;53.17
56042;BME280;48756;41.374;2.066;2023-10-19T12:28:39;99000.13;;;25.56;53.74
56042;BME280;48756;41.374;2.066;2023-10-19T12:31:06;98998.41;;;25.65;53.51
56042;BME280;48756;41.374;2.066;2023-10-19T12:33:37;98994.00;;;25.91;53.60
56042;BME280;48756;41.374;2.066;2023-10-19T12:36:04;99010.69;;;25.58;55.81
56042;BME280;48756;41.374;2.066;2023-10-19T12:38:50;98996.03;;;25.62;55.22
56042;BME280;48756;41.374;2.066;2023-10-19T12:41:18;99012.53;;;25.75;55.47
56042;BME280;48756;41.374;2.066;2023-10-19T12:43:44;98989.56;;;25.64;54.03
56042;BME280;48756;41.374;2.066;2023-10-19T12:46:11;98980.97;;;25.71;55.61
56042;BME280;48756;41.374;2.066;2023-10-19T12:48:39;98973.72;;;25.63;54.62
56042;BME280;48756;41.374;2.066;2023-10-19T12:51:05;98962.00;;;26.17;52.86
56042;BME280;48756;41.374;2.066;2023-10-19T12:53:37;98946.25;;;26.06;51.56
56042;BME280;48756;41.374;2.066;2023-10-19T12:56:04;98928.59;;;26.73;50.16
56042;BME280;48756;41.374;2.066;2023-10-19T12:58:31;98926.13;;;26.46;49.26
56042;BME280;48756;41.374;2.066;2023-10-19T13:00:57;98935.56;;;25.80;49.20
56042;BME280;48756;41.374;2.066;2023-10-19T13:03:24;98921.56;;;25.86;50.05
56042;BME280;48756;41.374;2.066;2023-10-19T13:05:53;98920.97;;;25.75;50.75
56042;BME280;48756;41.374;2.066;2023-10-19T13:08:19;98915.34;;;25.60;50.63
56042;BME280;48756;41.374;2.066;2023-10-19T13:10:47;98911.00;;;25.59;51.51
56042;BME280;48756;41.374;2.066;2023-10-19T13:13:14;98905.44;;;25.52;51.16
56042;BME280;48756;41.374;2.066;2023-10-19T13:15:42;98904.69;;;25.42;51.62
56042;BME280;48756;41.374;2.066;2023-10-19T13:18:10;98889.28;;;25.54;50.52
56042;BME280;48756;41.374;2.066;2023-10-19T13:20:37;98892.53;;;25.65;51.11
56042;BME280;48756;41.374;2.066;2023-10-19T13:23:07;98901.47;;;25.74;52.20
56042;BME280;48756;41.374;2.066;2023-10-19T13:25:37;98904.81;;;25.76;53.00
56042;BME280;48756;41.374;2.066;2023-10-19T13:28:16;98899.44;;;26.20;52.56